createdAt,value
2024-05-09T00:00:06.366Z,13.23
2024-05-09T00:00:48.682Z,13.33
2024-05-09T00:01:28.547Z,13.25
2024-05-09T00:02:08.544Z,13.37
2024-05-09T00:02:48.576Z,13.32
2024-05-09T00:03:28.423Z,13.26
2024-05-09T00:04:08.520Z,13.26
2024-05-09T00:04:48.433Z,13.33
2024-05-09T00:05:28.449Z,13.33
2024-05-09T00:06:11.161Z,13.43
2024-05-09T00:06:50.942Z,13.46
2024-05-09T00:07:30.794Z,13.46
2024-05-09T00:08:12.201Z,12.93
2024-05-09T00:08:52.318Z,13.08
2024-05-09T00:09:32.039Z,12.93
2024-05-09T00:10:18.319Z,13.22
2024-05-09T00:11:05.915Z,13.35
2024-05-09T00:11:45.903Z,13.41
2024-05-09T00:12:25.783Z,13.23
2024-05-09T00:13:06.556Z,13.23
2024-05-09T00:13:47.195Z,13.17
2024-05-09T00:14:26.982Z,13.24
2024-05-09T00:15:07.264Z,13.27
2024-05-09T00:15:47.158Z,13.39
2024-05-09T00:16:27.561Z,13.31
2024-05-09T00:17:07.524Z,13.33
2024-05-09T00:17:47.550Z,13.27
2024-05-09T00:18:27.746Z,13.21
2024-05-09T00:19:08.150Z,13.13
2024-05-09T00:19:47.998Z,13.10
2024-05-09T00:20:37.087Z,13.09
2024-05-09T00:21:19.993Z,13.06
2024-05-09T00:22:00.288Z,12.69
2024-05-09T00:22:40.015Z,12.84
2024-05-09T00:23:19.906Z,13.03
2024-05-09T00:23:59.820Z,13.14
2024-05-09T00:24:39.916Z,13.05
2024-05-09T00:25:19.757Z,12.95
2024-05-09T00:25:59.601Z,12.90
2024-05-09T00:26:39.469Z,13.02
2024-05-09T00:27:19.604Z,13.02
2024-05-09T00:27:59.391Z,13.10
2024-05-09T00:28:39.279Z,13.23
2024-05-09T00:29:19.137Z,13.25
2024-05-09T00:29:59.072Z,13.34
2024-05-09T00:30:38.985Z,13.26
2024-05-09T00:31:18.829Z,13.26
2024-05-09T00:31:58.679Z,13.18
2024-05-09T00:32:39.031Z,13.15
2024-05-09T00:33:19.099Z,13.06
2024-05-09T00:33:59.354Z,13.11
2024-05-09T00:34:39.287Z,13.00
2024-05-09T00:35:20.054Z,12.92
2024-05-09T00:35:59.787Z,12.93
2024-05-09T00:36:39.559Z,13.02
2024-05-09T00:37:19.459Z,12.98
2024-05-09T00:37:59.668Z,13.02
2024-05-09T00:38:39.611Z,13.12
2024-05-09T00:39:19.332Z,13.19
2024-05-09T00:39:59.078Z,13.28
2024-05-09T00:40:42.627Z,13.27
2024-05-09T00:41:23.414Z,13.02
2024-05-09T00:42:03.209Z,12.88
2024-05-09T00:42:43.040Z,13.01
2024-05-09T00:43:23.052Z,13.18
2024-05-09T00:44:03.501Z,13.28
2024-05-09T00:44:43.351Z,13.31
2024-05-09T00:45:23.120Z,13.27
2024-05-09T00:46:03.363Z,13.36
2024-05-09T00:46:43.225Z,13.09
2024-05-09T00:47:25.101Z,13.18
2024-05-09T00:48:08.667Z,13.24
2024-05-09T00:48:50.186Z,13.29
2024-05-09T00:49:30.468Z,13.19
2024-05-09T00:50:15.995Z,12.84
2024-05-09T00:51:03.299Z,12.94
2024-05-09T00:51:44.220Z,12.85
2024-05-09T00:52:24.014Z,12.93
2024-05-09T00:53:04.051Z,12.89
2024-05-09T00:53:44.221Z,12.81
2024-05-09T00:54:25.342Z,12.82
2024-05-09T00:55:05.158Z,12.72
2024-05-09T00:55:45.834Z,12.85
2024-05-09T00:56:26.389Z,12.73
2024-05-09T00:57:07.030Z,12.84
2024-05-09T00:57:46.889Z,12.82
2024-05-09T00:58:29.383Z,12.96
2024-05-09T00:59:09.887Z,13.02
2024-05-09T00:59:50.654Z,13.03
2024-05-09T01:01:18.631Z,12.68
2024-05-09T01:01:59.589Z,12.43
2024-05-09T01:02:40.329Z,12.66
2024-05-09T01:03:20.443Z,12.36
2024-05-09T01:04:01.623Z,12.16
2024-05-09T01:04:41.543Z,12.24
2024-05-09T01:05:21.429Z,12.45
2024-05-09T01:06:01.175Z,12.28
2024-05-09T01:06:41.001Z,12.23
2024-05-09T01:07:20.903Z,12.31
2024-05-09T01:08:01.349Z,12.38
2024-05-09T01:08:41.165Z,12.50
2024-05-09T01:09:20.908Z,12.22
2024-05-09T01:10:00.693Z,12.50
2024-05-09T01:10:44.164Z,12.54
2024-05-09T01:11:25.788Z,12.72
2024-05-09T01:12:05.932Z,12.60
2024-05-09T01:12:45.783Z,12.56
2024-05-09T01:13:25.918Z,12.67
2024-05-09T01:14:05.895Z,12.72
2024-05-09T01:14:45.861Z,12.76
2024-05-09T01:15:25.627Z,12.58
2024-05-09T01:16:06.649Z,12.26
2024-05-09T01:16:46.634Z,12.47
2024-05-09T01:17:27.062Z,12.44
2024-05-09T01:18:12.365Z,12.67
2024-05-09T01:18:53.646Z,12.69
2024-05-09T01:19:33.668Z,12.80
2024-05-09T01:20:20.000Z,12.72
2024-05-09T01:21:10.387Z,12.61
2024-05-09T01:21:50.587Z,12.74
2024-05-09T01:22:32.216Z,12.74
2024-05-09T01:23:12.572Z,12.74
2024-05-09T01:23:53.444Z,12.47
2024-05-09T01:24:33.286Z,12.70
2024-05-09T01:25:13.050Z,12.62
2024-05-09T01:25:52.757Z,12.46
2024-05-09T01:26:32.538Z,12.56
2024-05-09T01:27:12.522Z,12.57
2024-05-09T01:27:52.246Z,12.47
2024-05-09T01:28:31.956Z,12.62
2024-05-09T01:29:11.752Z,12.74
2024-05-09T01:29:51.956Z,12.74
2024-05-09T01:30:35.287Z,12.60
2024-05-09T01:31:17.093Z,12.59
2024-05-09T01:32:00.054Z,12.57
2024-05-09T01:32:40.288Z,12.51
2024-05-09T01:33:20.453Z,12.63
2024-05-09T01:34:00.600Z,12.53
2024-05-09T01:34:40.402Z,12.32
2024-05-09T01:35:24.628Z,12.53
2024-05-09T01:36:04.494Z,12.41
2024-05-09T01:36:44.207Z,12.52
2024-05-09T01:37:23.971Z,12.67
2024-05-09T01:38:04.452Z,12.69
2024-05-09T01:38:44.293Z,12.51
2024-05-09T01:39:24.696Z,12.12
2024-05-09T01:40:07.434Z,12.24
2024-05-09T01:40:50.540Z,12.46
2024-05-09T01:41:30.376Z,12.12
2024-05-09T01:42:10.115Z,12.40
2024-05-09T01:42:49.864Z,12.56
2024-05-09T01:43:30.265Z,12.72
2024-05-09T01:44:10.165Z,12.43
2024-05-09T01:44:49.942Z,12.22
2024-05-09T01:45:29.963Z,11.97
2024-05-09T01:46:17.933Z,11.96
2024-05-09T01:46:57.673Z,11.98
2024-05-09T01:47:37.807Z,12.02
2024-05-09T01:48:17.842Z,11.85
2024-05-09T01:48:58.580Z,11.69
2024-05-09T01:49:39.453Z,11.99
2024-05-09T01:50:28.934Z,12.17
2024-05-09T01:51:16.477Z,12.37
2024-05-09T01:51:56.733Z,12.11
2024-05-09T01:52:39.683Z,11.87
2024-05-09T01:53:19.591Z,12.22
2024-05-09T01:53:59.370Z,12.26
2024-05-09T01:54:39.223Z,12.10
2024-05-09T01:55:19.005Z,12.13
2024-05-09T01:55:58.806Z,12.18
2024-05-09T01:56:38.631Z,12.48
2024-05-09T01:57:18.979Z,12.47
2024-05-09T01:57:58.827Z,12.54
2024-05-09T01:58:39.666Z,12.41
2024-05-09T01:59:19.488Z,12.56
2024-05-09T02:00:00.054Z,12.34
2024-05-09T02:00:42.784Z,12.41
2024-05-09T02:01:23.351Z,12.34
2024-05-09T02:02:03.266Z,12.39
2024-05-09T02:02:46.751Z,12.38
2024-05-09T02:03:26.748Z,12.50
2024-05-09T02:04:06.978Z,12.67
2024-05-09T02:04:51.394Z,12.46
2024-05-09T02:05:31.705Z,12.12
2024-05-09T02:06:11.665Z,12.20
2024-05-09T02:06:51.461Z,12.33
2024-05-09T02:07:31.340Z,12.41
2024-05-09T02:08:19.341Z,12.47
2024-05-09T02:08:59.401Z,12.40
2024-05-09T02:09:39.175Z,12.40
2024-05-09T02:10:26.015Z,12.48
2024-05-09T02:11:11.900Z,12.43
2024-05-09T02:11:52.240Z,12.50
2024-05-09T02:12:32.668Z,12.33
2024-05-09T02:13:12.706Z,12.45
2024-05-09T02:13:52.802Z,12.13
2024-05-09T02:14:32.626Z,12.32
2024-05-09T02:15:12.381Z,12.25
2024-05-09T02:15:53.200Z,12.32
2024-05-09T02:16:33.380Z,12.53
2024-05-09T02:17:13.287Z,12.43
2024-05-09T02:17:53.401Z,12.62
2024-05-09T02:18:33.390Z,12.50
2024-05-09T02:19:13.467Z,12.65
2024-05-09T02:19:53.360Z,12.71
2024-05-09T02:20:36.433Z,12.64
2024-05-09T02:21:17.499Z,12.64
2024-05-09T02:21:57.672Z,12.39
2024-05-09T02:22:37.372Z,12.37
2024-05-09T02:23:17.264Z,12.33
2024-05-09T02:23:57.080Z,12.46
2024-05-09T02:24:37.181Z,12.29
2024-05-09T02:25:16.970Z,12.33
2024-05-09T02:25:56.967Z,12.33
2024-05-09T02:26:36.721Z,12.52
2024-05-09T02:27:16.953Z,12.56
2024-05-09T02:27:56.706Z,12.47
2024-05-09T02:28:36.440Z,12.22
2024-05-09T02:29:16.245Z,12.52
2024-05-09T02:29:56.568Z,12.56
2024-05-09T02:30:40.597Z,12.50
2024-05-09T02:31:21.895Z,12.18
2024-05-09T02:32:01.668Z,12.02
2024-05-09T02:32:41.960Z,11.85
2024-05-09T02:33:22.158Z,11.99
2024-05-09T02:34:02.437Z,11.89
2024-05-09T02:34:42.313Z,11.73
2024-05-09T02:35:22.394Z,11.73
2024-05-09T02:36:02.225Z,11.88
2024-05-09T02:36:41.982Z,12.04
2024-05-09T02:37:21.676Z,12.06
2024-05-09T02:38:02.020Z,11.87
2024-05-09T02:38:42.039Z,11.85
2024-05-09T02:39:21.872Z,11.87
2024-05-09T02:40:01.661Z,11.53
2024-05-09T02:40:41.916Z,11.65
2024-05-09T02:41:21.727Z,11.54
2024-05-09T02:42:01.477Z,11.74
2024-05-09T02:42:42.280Z,11.99
2024-05-09T02:43:22.167Z,12.02
2024-05-09T02:44:01.942Z,12.06
2024-05-09T02:44:41.736Z,11.93
2024-05-09T02:45:21.467Z,11.85
2024-05-09T02:46:01.752Z,11.99
2024-05-09T02:46:41.483Z,12.14
2024-05-09T02:47:21.578Z,12.30
2024-05-09T02:48:02.199Z,12.21
2024-05-09T02:48:42.741Z,12.45
2024-05-09T02:49:22.672Z,12.35
2024-05-09T02:50:03.050Z,12.32
2024-05-09T02:50:45.216Z,12.35
2024-05-09T02:51:25.152Z,12.26
2024-05-09T02:52:04.938Z,12.28
2024-05-09T02:52:44.749Z,12.26
2024-05-09T02:53:24.737Z,12.39
2024-05-09T02:54:04.691Z,12.29
2024-05-09T02:54:44.412Z,12.02
2024-05-09T02:55:24.345Z,12.25
2024-05-09T02:56:04.106Z,12.07
2024-05-09T02:56:44.191Z,12.14
2024-05-09T02:57:23.962Z,12.04
2024-05-09T02:58:03.762Z,11.83
2024-05-09T02:58:43.571Z,11.97
2024-05-09T02:59:23.992Z,11.95
2024-05-09T03:00:06.206Z,12.10
2024-05-09T03:00:47.542Z,12.16
2024-05-09T03:01:27.329Z,11.98
2024-05-09T03:02:07.398Z,12.13
2024-05-09T03:02:47.242Z,12.13
2024-05-09T03:03:27.497Z,12.23
2024-05-09T03:04:07.759Z,12.33
2024-05-09T03:04:47.974Z,12.42
2024-05-09T03:05:27.888Z,12.18
2024-05-09T03:06:07.746Z,12.35
2024-05-09T03:06:47.519Z,12.41
2024-05-09T03:07:27.525Z,12.27
2024-05-09T03:08:07.825Z,12.33
2024-05-09T03:08:49.895Z,12.30
2024-05-09T03:09:30.055Z,12.26
2024-05-09T03:10:18.275Z,12.30
2024-05-09T03:11:02.183Z,12.36
2024-05-09T03:11:42.091Z,12.30
2024-05-09T03:12:21.921Z,12.25
2024-05-09T03:13:02.025Z,12.25
2024-05-09T03:13:43.641Z,12.30
2024-05-09T03:14:23.821Z,12.29
2024-05-09T03:15:03.767Z,12.41
2024-05-09T03:15:44.706Z,12.20
2024-05-09T03:16:24.695Z,12.10
2024-05-09T03:17:04.600Z,12.24
2024-05-09T03:17:44.639Z,12.34
2024-05-09T03:18:25.245Z,12.19
2024-05-09T03:19:05.107Z,11.99
2024-05-09T03:19:44.909Z,11.74
2024-05-09T03:20:32.252Z,11.66
2024-05-09T03:21:14.454Z,11.54
2024-05-09T03:21:55.463Z,11.70
2024-05-09T03:22:35.269Z,11.74
2024-05-09T03:23:15.216Z,11.90
2024-05-09T03:23:55.543Z,12.01
2024-05-09T03:24:35.434Z,12.10
2024-05-09T03:25:15.288Z,12.05
2024-05-09T03:25:55.196Z,12.12
2024-05-09T03:26:35.727Z,12.12
2024-05-09T03:27:15.570Z,12.11
2024-05-09T03:27:55.844Z,12.05
2024-05-09T03:28:35.610Z,11.98
2024-05-09T03:29:15.657Z,11.92
2024-05-09T03:29:55.458Z,11.63
2024-05-09T03:30:40.670Z,11.54
2024-05-09T03:31:22.616Z,11.62
2024-05-09T03:32:02.767Z,11.44
2024-05-09T03:32:45.036Z,11.78
2024-05-09T03:33:25.006Z,11.83
2024-05-09T03:34:05.248Z,11.88
2024-05-09T03:34:45.257Z,11.74
2024-05-09T03:35:25.273Z,11.65
2024-05-09T03:36:09.108Z,11.73
2024-05-09T03:36:50.400Z,11.65
2024-05-09T03:37:30.409Z,11.42
2024-05-09T03:38:10.223Z,11.42
2024-05-09T03:38:51.819Z,11.16
2024-05-09T03:39:31.629Z,11.36
2024-05-09T03:40:17.731Z,11.35
2024-05-09T03:41:00.783Z,11.64
2024-05-09T03:41:40.699Z,11.73
2024-05-09T03:42:20.435Z,11.88
2024-05-09T03:43:00.467Z,12.00
2024-05-09T03:43:40.164Z,12.03
2024-05-09T03:44:20.428Z,12.00
2024-05-09T03:45:00.368Z,11.98
2024-05-09T03:45:40.677Z,11.98
2024-05-09T03:46:20.496Z,11.80
2024-05-09T03:47:00.241Z,11.61
2024-05-09T03:47:40.249Z,11.52
2024-05-09T03:48:21.635Z,11.84
2024-05-09T03:49:01.624Z,11.91
2024-05-09T03:49:41.673Z,11.93
2024-05-09T03:50:30.020Z,11.98
2024-05-09T03:51:13.921Z,11.97
2024-05-09T03:51:53.712Z,12.02
2024-05-09T03:52:33.582Z,11.92
2024-05-09T03:53:14.966Z,11.71
2024-05-09T03:53:55.132Z,11.90
2024-05-09T03:54:37.562Z,11.95
2024-05-09T03:55:18.081Z,12.06
2024-05-09T03:55:58.291Z,12.08
2024-05-09T03:56:38.907Z,12.01
2024-05-09T03:57:18.704Z,11.98
2024-05-09T03:57:58.670Z,12.03
2024-05-09T03:58:38.652Z,12.00
2024-05-09T03:59:19.382Z,11.68
2024-05-09T03:59:59.167Z,11.63
2024-05-09T04:00:40.238Z,11.76
2024-05-09T04:01:20.301Z,11.91
2024-05-09T04:02:00.557Z,11.86
2024-05-09T04:02:44.517Z,11.93
2024-05-09T04:03:24.586Z,11.98
2024-05-09T04:04:05.228Z,12.03
2024-05-09T04:04:46.020Z,11.97
2024-05-09T04:05:27.291Z,11.93
2024-05-09T04:06:07.767Z,12.08
2024-05-09T04:06:48.250Z,12.08
2024-05-09T04:07:28.062Z,12.11
2024-05-09T04:08:08.169Z,12.09
2024-05-09T04:08:48.047Z,11.87
2024-05-09T04:09:27.829Z,11.98
2024-05-09T04:10:16.985Z,12.02
2024-05-09T04:11:03.606Z,12.03
2024-05-09T04:11:43.693Z,11.96
2024-05-09T04:12:23.562Z,11.80
2024-05-09T04:13:04.611Z,11.62
2024-05-09T04:13:44.421Z,11.66
2024-05-09T04:14:24.587Z,11.73
2024-05-09T04:15:04.973Z,11.67
2024-05-09T04:15:44.983Z,11.63
2024-05-09T04:16:25.138Z,11.70
2024-05-09T04:17:05.027Z,11.87
2024-05-09T04:17:51.980Z,11.84
2024-05-09T04:18:32.026Z,11.63
2024-05-09T04:19:11.948Z,11.32
2024-05-09T04:19:51.809Z,11.17
2024-05-09T04:20:38.203Z,11.02
2024-05-09T04:21:20.440Z,11.36
2024-05-09T04:22:00.915Z,11.34
2024-05-09T04:22:40.865Z,11.35
2024-05-09T04:23:20.779Z,11.34
2024-05-09T04:24:00.822Z,11.35
2024-05-09T04:24:40.530Z,11.33
2024-05-09T04:25:20.311Z,11.41
2024-05-09T04:26:05.190Z,11.05
2024-05-09T04:26:45.318Z,10.93
2024-05-09T04:27:25.103Z,11.06
2024-05-09T04:28:05.085Z,11.11
2024-05-09T04:28:44.969Z,11.12
2024-05-09T04:29:25.042Z,11.28
2024-05-09T04:30:07.874Z,11.34
2024-05-09T04:30:49.719Z,11.00
2024-05-09T04:31:30.413Z,11.12
2024-05-09T04:32:10.654Z,11.09
2024-05-09T04:32:52.536Z,11.03
2024-05-09T04:33:32.597Z,11.14
2024-05-09T04:34:12.939Z,11.27
2024-05-09T04:34:53.037Z,11.13
2024-05-09T04:35:32.832Z,11.19
2024-05-09T04:36:12.791Z,10.80
2024-05-09T04:36:52.521Z,11.03
2024-05-09T04:37:32.535Z,10.82
2024-05-09T04:38:13.290Z,10.88
2024-05-09T04:38:53.358Z,11.19
2024-05-09T04:39:33.098Z,11.22
2024-05-09T04:40:24.086Z,11.18
2024-05-09T04:41:11.162Z,11.08
2024-05-09T04:41:50.959Z,11.09
2024-05-09T04:42:30.711Z,11.07
2024-05-09T04:43:21.475Z,11.05
2024-05-09T04:44:01.500Z,11.23
2024-05-09T04:44:41.272Z,11.39
2024-05-09T04:45:21.156Z,11.54
2024-05-09T04:46:01.257Z,11.55
2024-05-09T04:46:41.133Z,11.50
2024-05-09T04:47:21.057Z,11.31
2024-05-09T04:48:01.410Z,11.19
2024-05-09T04:48:42.245Z,11.06
2024-05-09T04:49:22.253Z,10.93
2024-05-09T04:50:02.574Z,11.16
2024-05-09T04:50:42.736Z,11.28
2024-05-09T04:51:23.048Z,11.24
2024-05-09T04:52:03.071Z,11.49
2024-05-09T04:52:42.856Z,11.66
2024-05-09T04:53:22.955Z,11.60
2024-05-09T04:54:03.246Z,11.61
2024-05-09T04:54:43.006Z,11.62
2024-05-09T04:55:22.916Z,11.63
2024-05-09T04:56:02.624Z,11.48
2024-05-09T04:56:42.859Z,11.54
2024-05-09T04:57:22.657Z,11.35
2024-05-09T04:58:02.654Z,11.52
2024-05-09T04:58:42.394Z,11.49
2024-05-09T04:59:22.994Z,11.42
2024-05-09T05:00:07.218Z,11.42
2024-05-09T05:00:49.659Z,11.31
2024-05-09T05:01:29.585Z,11.37
2024-05-09T05:02:09.702Z,11.54
2024-05-09T05:02:49.740Z,11.63
2024-05-09T05:03:29.744Z,11.61
2024-05-09T05:04:09.773Z,11.49
2024-05-09T05:04:50.090Z,11.48
2024-05-09T05:05:29.992Z,11.63
2024-05-09T05:06:10.427Z,11.68
2024-05-09T05:06:50.298Z,11.67
2024-05-09T05:08:01.797Z,11.51
2024-05-09T05:08:41.648Z,11.71
2024-05-09T05:09:21.629Z,11.71
2024-05-09T05:10:01.739Z,11.66
2024-05-09T05:10:41.959Z,11.61
2024-05-09T05:11:21.833Z,11.53
2024-05-09T05:12:03.825Z,11.72
2024-05-09T05:13:02.651Z,11.76
2024-05-09T05:13:44.503Z,11.84
2024-05-09T05:14:24.549Z,11.85
2024-05-09T05:15:04.307Z,11.87
2024-05-09T05:16:20.629Z,11.75
2024-05-09T05:17:18.803Z,11.85
2024-05-09T05:17:58.995Z,11.97
2024-05-09T05:18:39.064Z,11.87
2024-05-09T05:19:18.992Z,11.96
2024-05-09T05:19:59.624Z,12.04
2024-05-09T05:20:40.326Z,11.93
2024-05-09T05:21:20.913Z,11.90
2024-05-09T05:22:01.000Z,11.95
2024-05-09T05:22:44.115Z,11.78
2024-05-09T05:23:25.042Z,11.88
2024-05-09T05:24:07.130Z,11.87
2024-05-09T05:24:47.012Z,11.76
2024-05-09T05:25:26.898Z,11.81
2024-05-09T05:26:07.284Z,11.87
2024-05-09T05:26:47.578Z,11.98
2024-05-09T05:27:27.533Z,11.88
2024-05-09T05:28:07.693Z,12.11
2024-05-09T05:28:48.288Z,12.22
2024-05-09T05:29:28.230Z,12.27
2024-05-09T05:30:14.656Z,12.27
2024-05-09T05:30:57.829Z,12.18
2024-05-09T05:31:37.599Z,12.27
2024-05-09T05:32:18.157Z,12.27
2024-05-09T05:32:58.263Z,12.29
2024-05-09T05:33:38.453Z,12.26
2024-05-09T05:34:18.322Z,12.29
2024-05-09T05:34:58.506Z,12.38
2024-05-09T05:35:38.752Z,12.45
2024-05-09T05:36:18.475Z,12.47
2024-05-09T05:36:58.482Z,12.58
2024-05-09T05:37:39.244Z,12.48
2024-05-09T05:38:21.227Z,12.59
2024-05-09T05:39:02.414Z,12.51
2024-05-09T05:39:42.592Z,12.61
2024-05-09T05:40:32.079Z,12.67
2024-05-09T05:41:15.732Z,12.46
2024-05-09T05:41:55.628Z,12.67
2024-05-09T05:42:35.423Z,12.67
2024-05-09T05:43:20.123Z,12.84
2024-05-09T05:44:00.077Z,12.69
2024-05-09T05:44:40.006Z,12.80
2024-05-09T05:45:20.068Z,12.77
2024-05-09T05:46:00.060Z,12.75
2024-05-09T05:46:39.839Z,12.65
2024-05-09T05:47:19.846Z,12.62
2024-05-09T05:48:00.956Z,12.76
2024-05-09T05:48:41.639Z,12.87
2024-05-09T05:49:21.752Z,12.88
2024-05-09T05:50:01.863Z,12.72
2024-05-09T05:50:41.961Z,12.89
2024-05-09T05:51:22.128Z,12.85
2024-05-09T05:52:01.969Z,12.88
2024-05-09T05:52:42.915Z,12.75
2024-05-09T05:53:22.970Z,12.93
2024-05-09T05:54:03.004Z,13.01
2024-05-09T05:54:42.810Z,13.12
2024-05-09T05:55:22.816Z,13.18
2024-05-09T05:56:02.647Z,13.16
2024-05-09T05:56:43.015Z,13.13
2024-05-09T05:57:22.810Z,13.14
2024-05-09T05:58:03.871Z,13.12
2024-05-09T05:58:44.213Z,13.16
2024-05-09T05:59:25.010Z,13.19
2024-05-09T06:00:09.382Z,13.26
2024-05-09T06:00:54.545Z,13.33
2024-05-09T06:01:34.717Z,13.37
2024-05-09T06:02:14.977Z,13.36
2024-05-09T06:02:54.954Z,13.38
2024-05-09T06:03:34.971Z,13.42
2024-05-09T06:04:14.828Z,13.45
2024-05-09T06:04:55.136Z,13.36
2024-05-09T06:05:36.187Z,13.39
2024-05-09T06:06:16.187Z,13.47
2024-05-09T06:06:55.958Z,13.53
2024-05-09T06:07:35.931Z,13.57
2024-05-09T06:08:15.953Z,13.61
2024-05-09T06:08:56.276Z,13.62
2024-05-09T06:09:36.490Z,13.65
2024-05-09T06:10:21.498Z,13.69
2024-05-09T06:11:05.710Z,13.77
2024-05-09T06:11:45.714Z,13.78
2024-05-09T06:12:25.741Z,13.82
2024-05-09T06:13:06.469Z,13.90
2024-05-09T06:13:46.323Z,13.88
2024-05-09T06:14:26.680Z,13.84
2024-05-09T06:15:07.359Z,13.81
2024-05-09T06:15:47.523Z,13.93
2024-05-09T06:16:27.288Z,13.92
2024-05-09T06:17:07.133Z,13.92
2024-05-09T06:17:47.078Z,14.00
2024-05-09T06:18:27.578Z,14.03
2024-05-09T06:19:07.727Z,14.08
2024-05-09T06:19:47.820Z,14.24
2024-05-09T06:20:35.440Z,14.31
2024-05-09T06:21:21.169Z,14.36
2024-05-09T06:22:01.106Z,14.35
2024-05-09T06:22:40.957Z,14.33
2024-05-09T06:23:21.759Z,14.34
2024-05-09T06:24:03.799Z,14.40
2024-05-09T06:24:45.109Z,14.38
2024-05-09T06:25:24.890Z,14.41
2024-05-09T06:26:06.597Z,14.47
2024-05-09T06:26:47.450Z,14.51
2024-05-09T06:27:27.356Z,14.43
2024-05-09T06:28:07.497Z,14.45
2024-05-09T06:28:47.544Z,14.55
2024-05-09T06:29:27.630Z,14.52
2024-05-09T06:30:09.985Z,14.60
2024-05-09T06:30:51.898Z,14.68
2024-05-09T06:31:31.812Z,14.77
2024-05-09T06:32:11.918Z,14.92
2024-05-09T06:32:51.966Z,14.96
2024-05-09T06:33:31.962Z,14.88
2024-05-09T06:34:12.397Z,14.90
2024-05-09T06:34:52.860Z,14.94
2024-05-09T06:35:32.825Z,14.93
2024-05-09T06:36:12.932Z,14.97
2024-05-09T06:36:52.686Z,14.93
2024-05-09T06:37:32.688Z,14.84
2024-05-09T06:38:12.725Z,14.84
2024-05-09T06:38:52.607Z,14.85
2024-05-09T06:39:35.408Z,14.91
2024-05-09T06:40:21.179Z,15.06
2024-05-09T06:41:05.382Z,15.12
2024-05-09T06:41:45.172Z,15.26
2024-05-09T06:42:24.985Z,15.27
2024-05-09T06:43:05.152Z,15.40
2024-05-09T06:43:45.141Z,15.42
2024-05-09T06:44:25.002Z,15.41
2024-05-09T06:45:04.970Z,15.35
2024-05-09T06:45:45.132Z,15.33
2024-05-09T06:46:26.326Z,15.32
2024-05-09T06:47:06.345Z,15.32
2024-05-09T06:47:46.302Z,15.34
2024-05-09T06:48:26.827Z,15.41
2024-05-09T06:49:09.323Z,15.50
2024-05-09T06:49:49.345Z,15.55
2024-05-09T06:50:36.825Z,15.58
2024-05-09T06:51:18.361Z,15.69
2024-05-09T06:51:58.124Z,15.80
2024-05-09T06:52:37.931Z,15.71
2024-05-09T06:53:18.519Z,15.66
2024-05-09T06:53:58.741Z,15.68
2024-05-09T06:54:38.882Z,15.66
2024-05-09T06:55:18.600Z,15.64
2024-05-09T06:55:58.363Z,15.68
2024-05-09T06:57:12.366Z,15.74
2024-05-09T06:57:52.275Z,15.82
2024-05-09T06:58:32.038Z,15.82
2024-05-09T06:59:12.079Z,15.80
2024-05-09T06:59:51.804Z,15.80
2024-05-09T07:00:38.541Z,15.75
2024-05-09T07:01:21.702Z,15.76
2024-05-09T07:02:01.742Z,15.80
2024-05-09T07:02:41.641Z,15.92
2024-05-09T07:03:21.705Z,15.99
2024-05-09T07:04:01.764Z,16.02
2024-05-09T07:04:41.781Z,16.02
2024-05-09T07:05:21.593Z,16.03
2024-05-09T07:06:01.692Z,16.13
2024-05-09T07:06:41.490Z,16.11
2024-05-09T07:07:21.539Z,16.15
2024-05-09T07:08:16.878Z,16.16
2024-05-09T07:08:56.791Z,16.25
2024-05-09T07:09:36.968Z,16.11
2024-05-09T07:10:22.156Z,16.22
2024-05-09T07:11:08.568Z,16.28
2024-05-09T07:11:48.554Z,16.22
2024-05-09T07:12:28.488Z,16.33
2024-05-09T07:13:12.552Z,16.33
2024-05-09T07:13:52.963Z,16.35
2024-05-09T07:14:33.977Z,16.33
2024-05-09T07:15:14.565Z,16.37
2024-05-09T07:15:54.699Z,16.44
2024-05-09T07:16:34.742Z,16.48
2024-05-09T07:17:15.201Z,16.50
2024-05-09T07:17:55.233Z,16.52
2024-05-09T07:18:37.252Z,16.70
2024-05-09T07:19:17.435Z,16.84
2024-05-09T07:19:57.361Z,16.93
2024-05-09T07:20:37.183Z,16.90
2024-05-09T07:21:17.446Z,16.98
2024-05-09T07:21:57.368Z,17.08
2024-05-09T07:22:37.098Z,17.20
2024-05-09T07:23:17.243Z,17.26
2024-05-09T07:23:58.448Z,17.30
2024-05-09T07:24:39.149Z,17.34
2024-05-09T07:25:18.943Z,17.33
2024-05-09T07:25:59.121Z,17.35
2024-05-09T07:26:39.393Z,17.34
2024-05-09T07:27:19.326Z,17.34
2024-05-09T07:27:59.185Z,17.30
2024-05-09T07:28:39.007Z,17.24
2024-05-09T07:29:18.967Z,17.30
2024-05-09T07:29:58.946Z,17.46
2024-05-09T07:30:38.732Z,17.56
2024-05-09T07:31:18.460Z,17.65
2024-05-09T07:31:58.684Z,17.65
2024-05-09T07:32:38.656Z,17.72
2024-05-09T07:33:23.567Z,17.71
2024-05-09T07:34:04.280Z,17.78
2024-05-09T07:34:44.203Z,17.83
2024-05-09T07:35:24.207Z,17.97
2024-05-09T07:36:03.980Z,18.01
2024-05-09T07:36:44.185Z,18.05
2024-05-09T07:37:24.621Z,18.02
2024-05-09T07:38:04.916Z,18.09
2024-05-09T07:38:44.702Z,18.22
2024-05-09T07:39:25.523Z,18.25
2024-05-09T07:40:07.636Z,18.34
2024-05-09T07:40:47.685Z,18.38
2024-05-09T07:41:27.673Z,18.40
2024-05-09T07:42:07.711Z,18.51
2024-05-09T07:42:47.752Z,18.60
2024-05-09T07:43:28.968Z,18.73
2024-05-09T07:44:08.792Z,18.68
2024-05-09T07:44:48.608Z,18.68
2024-05-09T07:45:45.068Z,18.77
2024-05-09T07:47:36.781Z,18.81
2024-05-09T07:49:44.757Z,18.89
2024-05-09T07:50:55.698Z,18.82
2024-05-09T07:53:37.179Z,19.09
2024-05-09T07:54:12.313Z,19.24
2024-05-09T07:54:52.308Z,19.35
2024-05-09T07:55:32.372Z,19.46
2024-05-09T07:56:12.758Z,19.48
2024-05-09T07:56:53.455Z,19.49
2024-05-09T07:57:33.399Z,19.44
2024-05-09T07:58:13.158Z,19.50
2024-05-09T07:58:54.774Z,19.49
2024-05-09T07:59:37.912Z,19.54
2024-05-09T08:00:23.689Z,19.70
2024-05-09T08:01:09.564Z,19.84
2024-05-09T08:01:49.864Z,19.79
2024-05-09T08:02:30.799Z,19.82
2024-05-09T08:03:12.232Z,19.79
2024-05-09T08:03:52.288Z,19.91
2024-05-09T08:04:32.397Z,19.87
2024-05-09T08:05:12.741Z,19.87
2024-05-09T08:05:53.206Z,19.90
2024-05-09T08:06:33.312Z,19.92
2024-05-09T08:07:13.094Z,19.78
2024-05-09T08:07:53.853Z,19.66
2024-05-09T08:08:33.622Z,19.70
2024-05-09T08:09:53.498Z,19.83
2024-05-09T08:10:36.084Z,19.87
2024-05-09T08:11:16.103Z,19.84
2024-05-09T08:11:55.996Z,19.95
2024-05-09T08:12:35.915Z,20.11
2024-05-09T08:13:16.362Z,20.22
2024-05-09T08:13:56.198Z,20.19
2024-05-09T08:14:36.096Z,20.13
2024-05-09T08:15:15.890Z,20.28
2024-05-09T08:15:56.220Z,20.17
2024-05-09T08:16:36.028Z,20.13
2024-05-09T08:17:15.794Z,20.22
2024-05-09T08:17:55.632Z,20.35
2024-05-09T08:18:35.932Z,20.36
2024-05-09T08:19:16.055Z,20.32
2024-05-09T08:19:57.061Z,20.42
2024-05-09T08:20:38.559Z,20.56
2024-05-09T08:21:20.229Z,20.74
2024-05-09T08:22:00.117Z,20.79
2024-05-09T08:22:39.831Z,20.86
2024-05-09T08:23:19.742Z,20.99
2024-05-09T08:24:01.177Z,21.03
2024-05-09T08:24:40.956Z,21.03
2024-05-09T08:25:20.724Z,20.91
2024-05-09T08:26:00.484Z,20.89
2024-05-09T08:26:40.431Z,20.91
2024-05-09T08:27:20.346Z,20.90
2024-05-09T08:28:00.203Z,21.09
2024-05-09T08:28:39.966Z,21.16
2024-05-09T08:29:20.254Z,21.22
2024-05-09T08:30:00.355Z,21.30
2024-05-09T08:30:40.385Z,21.29
2024-05-09T08:31:20.318Z,21.27
2024-05-09T08:32:00.658Z,21.18
2024-05-09T08:32:42.194Z,21.12
2024-05-09T08:33:22.073Z,21.16
2024-05-09T08:34:02.193Z,21.18
2024-05-09T08:34:42.663Z,21.17
2024-05-09T08:35:22.442Z,21.20
2024-05-09T08:36:02.355Z,21.25
2024-05-09T08:36:43.231Z,21.44
2024-05-09T08:37:27.819Z,21.49
2024-05-09T08:38:11.347Z,21.52
2024-05-09T08:38:51.114Z,21.57
2024-05-09T08:39:31.018Z,21.54
2024-05-09T08:40:23.593Z,21.43
2024-05-09T08:41:08.714Z,21.51
2024-05-09T08:41:55.128Z,21.58
2024-05-09T08:42:36.583Z,21.59
2024-05-09T08:43:21.305Z,21.70
2024-05-09T08:44:01.237Z,21.83
2024-05-09T08:44:41.092Z,21.76
2024-05-09T08:45:24.017Z,21.82
2024-05-09T08:46:07.200Z,21.85
2024-05-09T08:46:49.678Z,21.93
2024-05-09T08:47:34.027Z,22.08
2024-05-09T08:48:16.451Z,21.99
2024-05-09T08:48:59.234Z,21.96
2024-05-09T08:49:41.412Z,22.07
2024-05-09T08:50:31.991Z,22.15
2024-05-09T08:51:18.045Z,22.34
2024-05-09T08:51:57.980Z,22.40
2024-05-09T08:52:38.669Z,22.30
2024-05-09T08:53:18.549Z,22.25
2024-05-09T08:53:58.408Z,22.13
2024-05-09T08:54:38.390Z,22.06